Time;durP1;ratioP1;P1;durP2;ratioP2;P2;SDS_P1;SDS_P2;PMS_P1;PMS_P2;Temp;Humidity;BMP_temperature;BMP_pressure;BME280_temperature;BME280_humidity;BME280_pressure;Samples;Min_cycle;Max_cycle;Signal;HPM_P1;HPM_P2
2020/12/03 00:00:21;;;;;;;8.68;6.38;;;9.90;78.80;;;;;;5132257;28;20039;-41
2020/12/03 00:03:15;;;;;;;12.07;7.50;;;9.90;78.80;;;;;;5122630;28;20040;-42
2020/12/03 00:05:43;;;;;;;10.32;6.72;;;9.90;78.80;;;;;;5129686;28;20054;-41
2020/12/03 00:08:10;;;;;;;8.98;6.47;;;9.90;78.80;;;;;;5133071;27;20157;-41
2020/12/03 00:10:36;;;;;;;10.60;6.20;;;9.90;78.80;;;;;;5132284;28;20620;-41
2020/12/03 00:13:27;;;;;;;11.20;7.43;;;9.90;78.80;;;;;;5135627;27;20130;-41
2020/12/03 00:15:56;;;;;;;9.32;6.13;;;9.90;78.80;;;;;;5135923;27;20039;-42
2020/12/03 00:18:42;;;;;;;9.95;6.35;;;9.90;78.80;;;;;;5125700;27;20176;-46
2020/12/03 00:21:10;;;;;;;9.32;7.13;;;9.90;78.80;;;;;;5136367;27;20685;-44
2020/12/03 00:23:38;;;;;;;9.30;6.38;;;9.90;79.50;;;;;;5136288;27;20039;-43
2020/12/03 00:26:05;;;;;;;10.18;6.93;;;9.90;78.80;;;;;;5136542;27;20486;-44
2020/12/03 00:28:34;;;;;;;8.65;6.45;;;9.90;78.80;;;;;;5136168;27;20043;-44
2020/12/03 00:31:00;;;;;;;9.55;6.43;;;9.90;78.80;;;;;;5133762;27;20043;-43
2020/12/03 00:33:26;;;;;;;9.80;6.82;;;9.90;78.80;;;;;;5136674;27;20477;-50
2020/12/03 00:36:12;;;;;;;10.65;6.75;;;9.90;78.80;;;;;;5127425;27;20054;-45
2020/12/03 00:38:38;;;;;;;9.55;5.90;;;9.90;78.80;;;;;;5135639;27;20047;-46
2020/12/03 00:41:04;;;;;;;9.52;6.88;;;9.90;78.80;;;;;;5136138;27;20047;-42
2020/12/03 00:43:30;;;;;;;9.88;6.47;;;9.90;78.80;;;;;;5135999;27;20058;-43
2020/12/03 00:45:56;;;;;;;9.93;7.07;;;9.90;78.90;;;;;;5136112;27;20043;-67
2020/12/03 00:48:22;;;;;;;9.52;7.05;;;9.90;78.80;;;;;;5136381;27;20039;-67
2020/12/03 00:51:11;;;;;;;9.82;7.05;;;9.90;78.80;;;;;;5126531;27;20043;-67
2020/12/03 00:53:39;;;;;;;9.48;6.28;;;9.90;78.80;;;;;;5135216;27;20642;-67
2020/12/03 00:56:05;;;;;;;10.00;6.10;;;9.90;78.80;;;;;;5136111;27;20398;-67
2020/12/03 00:58:30;;;;;;;9.43;6.32;;;9.90;78.80;;;;;;5136012;27;20035;-65
2020/12/03 01:00:56;;;;;;;10.90;7.22;;;9.90;78.80;;;;;;5135613;27;20435;-62
2020/12/03 01:03:22;;;;;;;10.18;7.10;;;9.90;78.90;;;;;;5136234;27;20058;-68
2020/12/03 01:05:47;;;;;;;11.95;7.20;;;9.90;78.90;;;;;;5135924;27;20043;-68
2020/12/03 01:08:13;;;;;;;9.73;6.45;;;9.90;78.90;;;;;;5135657;27;20035;-68
2020/12/03 01:10:59;;;;;;;9.52;6.63;;;9.90;78.90;;;;;;5128584;27;20050;-65
2020/12/03 01:13:25;;;;;;;9.85;6.45;;;9.90;78.80;;;;;;5135348;27;20047;-45
2020/12/03 01:15:52;;;;;;;11.50;7.15;;;9.90;78.80;;;;;;5135724;27;20043;-63
2020/12/03 01:18:18;;;;;;;10.57;6.55;;;10.00;78.90;;;;;;5135725;27;20043;-65
2020/12/03 01:20:43;;;;;;;9.55;6.45;;;9.90;78.80;;;;;;5135396;27;20165;-61
2020/12/03 01:23:09;;;;;;;9.80;6.78;;;9.90;78.80;;;;;;5133832;27;20046;-57
2020/12/03 01:25:35;;;;;;;9.35;6.57;;;9.90;78.80;;;;;;5134931;27;20059;-68
2020/12/03 01:28:21;;;;;;;9.52;6.07;;;9.90;78.80;;;;;;5124569;27;20479;-67
2020/12/03 01:30:46;;;;;;;8.20;6.35;;;9.90;78.80;;;;;;5135484;27;20126;-68
2020/12/03 01:33:12;;;;;;;10.48;6.97;;;9.90;78.80;;;;;;5135326;27;20452;-47
2020/12/03 01:35:38;;;;;;;10.35;6.45;;;9.90;78.80;;;;;;5135001;27;20042;-44
2020/12/03 01:38:03;;;;;;;9.93;6.55;;;9.90;78.80;;;;;;5135560;27;20390;-44
2020/12/03 01:40:50;;;;;;;10.07;6.72;;;9.90;78.80;;;;;;5125567;27;20070;-43
2020/12/03 01:43:43;;;;;;;9.20;6.28;;;9.90;78.80;;;;;;5126110;27;20043;-45
2020/12/03 01:46:10;;;;;;;9.10;6.35;;;9.90;78.80;;;;;;5135108;27;20054;-44
2020/12/03 01:49:03;;;;;;;9.88;6.10;;;9.90;78.80;;;;;;5125281;27;20039;-44
2020/12/03 01:51:43;;;;;;;10.45;6.38;;;9.90;78.80;;;;;;5135015;27;20055;-52
2020/12/03 01:54:29;;;;;;;9.90;6.45;;;9.90;78.80;;;;;;5125694;27;20043;-45
2020/12/03 01:57:04;;;;;;;10.65;6.80;;;9.90;78.80;;;;;;5134150;27;20100;-45
2020/12/03 01:59:40;;;;;;;8.55;6.43;;;9.90;78.80;;;;;;5134409;27;20039;-43
2020/12/03 02:02:26;;;;;;;10.25;6.90;;;9.90;78.80;;;;;;5124127;27;20054;-42
2020/12/03 02:05:11;;;;;;;10.75;6.57;;;9.90;78.80;;;;;;5134668;27;20084;-47
2020/12/03 02:07:57;;;;;;;9.48;6.53;;;9.90;78.90;;;;;;5127466;27;20085;-49
2020/12/03 02:10:25;;;;;;;9.88;6.47;;;9.90;78.90;;;;;;5134588;27;20123;-44
2020/12/03 02:13:10;;;;;;;7.18;5.35;;;9.90;79.50;;;;;;5124596;27;20050;-45
2020/12/03 02:15:36;;;;;;;8.60;5.88;;;9.90;78.90;;;;;;5134386;27;20039;-48
2020/12/03 02:18:06;;;;;;;10.52;6.43;;;9.90;78.90;;;;;;5134482;27;20419;-46
2020/12/03 02:20:32;;;;;;;8.30;6.03;;;9.90;78.90;;;;;;5134428;27;20055;-49
2020/12/03 02:22:59;;;;;;;9.88;6.32;;;9.90;78.80;;;;;;5134474;27;20489;-43
2020/12/03 02:25:45;;;;;;;8.68;6.15;;;9.90;78.90;;;;;;5125406;27;20441;-47
2020/12/03 02:28:30;;;;;;;9.00;5.97;;;9.90;78.90;;;;;;5124986;27;20069;-45
2020/12/03 02:30:56;;;;;;;9.95;5.88;;;9.90;78.90;;;;;;5133786;27;20043;-46
2020/12/03 02:33:42;;;;;;;8.60;6.15;;;9.90;78.90;;;;;;5122966;27;20047;-46
2020/12/03 02:36:13;;;;;;;10.93;6.50;;;9.90;78.90;;;;;;5133764;27;20043;-44
2020/12/03 02:38:58;;;;;;;7.05;5.55;;;9.90;78.90;;;;;;5126502;27;20043;-40
2020/12/03 02:41:24;;;;;;;8.25;5.90;;;9.90;79.50;;;;;;5134028;27;20289;-45
2020/12/03 02:43:50;;;;;;;8.38;6.13;;;9.90;78.90;;;;;;5134285;27;20048;-63
2020/12/03 02:46:16;;;;;;;8.77;5.88;;;9.90;78.90;;;;;;5133245;27;20039;-67
2020/12/03 02:49:02;;;;;;;9.75;6.45;;;9.90;78.90;;;;;;5122192;27;20051;-67
2020/12/03 02:51:28;;;;;;;9.18;6.18;;;9.90;78.90;;;;;;5134431;27;20067;-63
2020/12/03 02:53:54;;;;;;;9.15;6.10;;;9.90;78.90;;;;;;5133799;27;20509;-63
2020/12/03 02:56:19;;;;;;;9.50;5.68;;;9.90;78.90;;;;;;5133857;27;20448;-66
2020/12/03 02:58:45;;;;;;;9.45;5.50;;;9.90;78.90;;;;;;5133869;27;20039;-67
2020/12/03 03:01:11;;;;;;;8.90;5.88;;;9.90;78.90;;;;;;5133110;27;20134;-67
2020/12/03 03:03:58;;;;;;;8.60;5.88;;;9.90;78.90;;;;;;5123987;27;20100;-41
2020/12/03 03:06:24;;;;;;;8.90;5.70;;;9.90;78.90;;;;;;5134638;27;20053;-64
2020/12/03 03:08:49;;;;;;;8.10;5.97;;;9.90;78.90;;;;;;5133655;27;20106;-67
2020/12/03 03:11:36;;;;;;;9.68;6.28;;;9.90;78.90;;;;;;5125610;27;20062;-66
2020/12/03 03:14:21;;;;;;;7.85;5.60;;;9.90;78.90;;;;;;5121500;27;20047;-67
2020/12/03 03:17:07;;;;;;;8.90;5.93;;;9.90;78.90;;;;;;5125526;27;20046;-66
2020/12/03 03:19:33;;;;;;;8.80;6.30;;;9.90;78.90;;;;;;5132995;27;20122;-66
2020/12/03 03:22:18;;;;;;;9.70;6.20;;;9.90;78.90;;;;;;5126139;27;20042;-63
2020/12/03 03:24:44;;;;;;;8.57;5.82;;;9.90;78.90;;;;;;5132927;27;20118;-43
2020/12/03 03:27:29;;;;;;;8.52;5.70;;;9.90;78.90;;;;;;5153923;27;20043;-56
2020/12/03 03:29:55;;;;;;;6.95;5.05;;;9.90;79.00;;;;;;5133087;27;20548;-55
2020/12/03 03:32:21;;;;;;;9.68;6.35;;;9.90;78.90;;;;;;5133033;27;20039;-53
2020/12/03 03:34:46;;;;;;;8.68;5.95;;;9.90;78.90;;;;;;5132681;27;20059;-49
2020/12/03 03:37:12;;;;;;;8.90;5.65;;;10.00;79.00;;;;;;5132840;27;20081;-53
2020/12/03 03:40:00;;;;;;;8.65;5.95;;;9.90;78.90;;;;;;5124055;27;20497;-53
2020/12/03 03:42:25;;;;;;;8.68;5.65;;;9.90;79.00;;;;;;5133345;27;20383;-48
2020/12/03 03:45:11;;;;;;;9.02;6.10;;;9.90;78.90;;;;;;5123315;28;20188;-52
2020/12/03 03:47:39;;;;;;;7.97;5.47;;;9.90;79.00;;;;;;5132040;27;20432;-43
2020/12/03 03:50:06;;;;;;;7.88;5.43;;;9.90;78.90;;;;;;5132803;27;20063;-43
2020/12/03 03:52:32;;;;;;;7.75;5.95;;;9.90;79.00;;;;;;5132854;28;20402;-47
2020/12/03 03:54:58;;;;;;;9.45;6.10;;;9.90;78.90;;;;;;5132593;28;20039;-43
2020/12/03 03:57:24;;;;;;;9.52;6.32;;;9.90;78.90;;;;;;5133153;27;20061;-48
2020/12/03 04:00:10;;;;;;;;;;;9.90;78.90;;;;;;5123772;28;20047;-49
2020/12/03 04:02:35;;;;;;;;;;;9.90;78.90;;;;;;5132903;28;19923;-45
2020/12/03 04:05:02;;;;;;;8.53;5.90;;;9.90;78.90;;;;;;5132704;28;20014;-48
2020/12/03 04:07:28;;;;;;;8.95;5.10;;;9.90;78.90;;;;;;5132527;28;20036;-42
2020/12/03 04:09:53;;;;;;;9.68;5.50;;;9.90;78.90;;;;;;5132367;28;20054;-44
2020/12/03 04:12:40;;;;;;;8.35;5.68;;;9.90;78.90;;;;;;5125643;28;20473;-48
2020/12/03 04:15:26;;;;;;;10.57;6.47;;;9.90;78.90;;;;;;5121799;28;20479;-52
2020/12/03 04:17:51;;;;;;;7.78;5.88;;;9.90;79.00;;;;;;5132712;27;20129;-46
2020/12/03 04:20:17;;;;;;;8.13;5.82;;;9.90;78.90;;;;;;5132749;27;20046;-47
2020/12/03 04:22:46;;;;;;;9.73;5.97;;;9.90;79.00;;;;;;5132289;28;20046;-50
2020/12/03 04:25:12;;;;;;;8.60;5.97;;;9.90;79.00;;;;;;5132199;27;20131;-46
2020/12/03 04:27:58;;;;;;;7.75;5.38;;;9.90;78.90;;;;;;5122977;28;20039;-43
2020/12/03 04:30:45;;;;;;;8.80;5.55;;;9.90;79.00;;;;;;5121734;28;20043;-43
2020/12/03 04:33:11;;;;;;;8.65;6.30;;;9.90;79.00;;;;;;5132688;28;20056;-45
2020/12/03 04:35:37;;;;;;;10.02;5.72;;;9.90;79.00;;;;;;5132458;28;20050;-43
2020/12/03 04:38:08;;;;;;;9.50;6.07;;;9.90;79.00;;;;;;5132521;27;20120;-45
2020/12/03 04:40:36;;;;;;;8.30;5.72;;;9.90;79.00;;;;;;5132183;28;20096;-43
2020/12/03 04:43:25;;;;;;;10.23;6.95;;;10.00;79.00;;;;;;5129915;28;20086;-44
2020/12/03 04:46:36;;;;;;;9.50;5.78;;;9.90;79.00;;;;;;5123338;28;20075;-43
2020/12/03 04:49:27;;;;;;;10.25;6.10;;;9.90;79.00;;;;;;5129817;28;20059;-42
2020/12/03 04:52:11;;;;;;;7.63;5.72;;;9.90;79.00;;;;;;5131178;28;20039;-41
2020/12/03 04:54:43;;;;;;;7.75;5.57;;;9.90;78.90;;;;;;5131243;28;20054;-42
2020/12/03 04:57:41;;;;;;;7.78;5.70;;;9.90;79.00;;;;;;5123656;27;20047;-41
2020/12/03 05:00:31;;;;;;;8.60;5.72;;;9.90;79.00;;;;;;5135665;27;20049;-41
2020/12/03 05:03:34;;;;;;;8.77;5.80;;;9.90;79.00;;;;;;5135125;27;20498;-41
2020/12/03 05:06:38;;;;;;;8.75;5.47;;;9.90;79.00;;;;;;5135579;27;20042;-40
2020/12/03 05:09:27;;;;;;;9.40;5.07;;;9.90;79.00;;;;;;5134845;27;20043;-42
2020/12/03 05:12:24;;;;;;;8.77;5.90;;;9.90;79.00;;;;;;5126469;27;20049;-37
2020/12/03 05:15:07;;;;;;;11.05;6.15;;;9.90;78.90;;;;;;5133922;27;20045;-42
2020/12/03 05:17:47;;;;;;;7.70;5.30;;;9.90;79.00;;;;;;5134512;27;20118;-46
2020/12/03 05:20:36;;;;;;;10.95;6.05;;;9.90;78.90;;;;;;5134356;27;20426;-40
2020/12/03 05:23:18;;;;;;;9.25;6.25;;;9.90;79.00;;;;;;5132984;27;20502;-67
2020/12/03 05:25:46;;;;;;;10.45;6.25;;;9.90;79.00;;;;;;5134289;27;20529;-68
2020/12/03 05:28:21;;;;;;;8.95;5.53;;;9.90;79.00;;;;;;5135645;27;20043;-68
2020/12/03 05:30:55;;;;;;;8.20;5.63;;;9.90;79.00;;;;;;5133647;27;20039;-68
2020/12/03 05:33:21;;;;;;;9.00;5.93;;;9.90;79.00;;;;;;5132753;27;20035;-67
2020/12/03 05:35:47;;;;;;;9.27;6.18;;;9.90;79.00;;;;;;5135179;27;20503;-67
2020/12/03 05:38:20;;;;;;;8.38;5.75;;;9.90;79.00;;;;;;5135170;27;20061;-67
2020/12/03 05:41:06;;;;;;;9.65;5.57;;;9.90;79.00;;;;;;5126166;27;20395;-67
2020/12/03 05:43:33;;;;;;;7.57;5.00;;;9.90;79.00;;;;;;5134356;27;20047;-52
2020/12/03 05:46:01;;;;;;;8.85;5.78;;;9.90;79.00;;;;;;5108718;27;20447;-46
2020/12/03 05:48:59;;;;;;;8.82;5.75;;;9.90;79.00;;;;;;5124310;27;20407;-43
2020/12/03 05:51:28;;;;;;;9.93;6.60;;;9.90;79.00;;;;;;5135276;27;20050;-47
2020/12/03 05:53:57;;;;;;;9.50;6.03;;;9.90;79.00;;;;;;5134753;27;20442;-44
2020/12/03 05:56:25;;;;;;;9.50;6.32;;;9.90;79.00;;;;;;5131911;27;20050;-44
2020/12/03 05:58:51;;;;;;;9.05;5.95;;;9.90;79.00;;;;;;5132439;27;20085;-46
2020/12/03 06:01:27;;;;;;;9.88;6.10;;;9.90;79.00;;;;;;5134463;27;20563;-56
2020/12/03 06:04:30;;;;;;;9.88;6.35;;;9.90;79.00;;;;;;5132772;27;20091;-44
2020/12/03 06:07:09;;;;;;;9.35;6.00;;;9.90;79.60;;;;;;5122458;27;20141;-61
2020/12/03 06:10:08;;;;;;;8.10;6.13;;;9.90;78.90;;;;;;5132661;27;20049;-53
2020/12/03 06:12:56;;;;;;;8.68;5.90;;;10.00;79.00;;;;;;5132763;27;20047;-44
2020/12/03 06:16:00;;;;;;;9.25;6.20;;;10.00;79.00;;;;;;5134314;27;20049;-47
2020/12/03 06:18:56;;;;;;;9.05;5.97;;;9.90;79.00;;;;;;5131653;27;20039;-48
2020/12/03 06:21:28;;;;;;;8.77;6.13;;;10.00;79.00;;;;;;5134164;27;20042;-45
2020/12/03 06:24:22;;;;;;;8.48;5.95;;;9.90;79.00;;;;;;5133930;27;20505;-44
2020/12/03 06:27:13;;;;;;;7.72;6.03;;;10.00;79.00;;;;;;5131411;27;20050;-42
2020/12/03 06:29:44;;;;;;;9.98;6.00;;;9.90;79.00;;;;;;5132432;27;20518;-44
2020/12/03 06:32:30;;;;;;;9.20;5.75;;;9.90;79.00;;;;;;5123045;27;20051;-42
2020/12/03 06:35:38;;;;;;;9.43;6.05;;;9.90;79.00;;;;;;5124329;27;20130;-41
2020/12/03 06:38:49;;;;;;;8.80;5.75;;;9.90;79.00;;;;;;5123752;27;20049;-42
2020/12/03 06:41:43;;;;;;;8.73;5.50;;;9.90;79.00;;;;;;5132442;27;20051;-40
2020/12/03 06:44:34;;;;;;;7.90;5.80;;;9.90;79.00;;;;;;5131952;27;20046;-44
2020/12/03 06:47:02;;;;;;;8.38;5.10;;;9.90;79.00;;;;;;5133004;27;20072;-41
2020/12/03 06:49:44;;;;;;;8.32;6.13;;;9.90;79.00;;;;;;5132699;27;20121;-42
2020/12/03 06:52:43;;;;;;;9.43;6.43;;;9.90;79.00;;;;;;5131414;27;20039;-42
2020/12/03 06:55:46;;;;;;;7.78;5.82;;;10.00;79.10;;;;;;5131193;27;20046;-45
2020/12/03 06:58:33;;;;;;;8.52;5.95;;;9.90;79.00;;;;;;5131506;27;20050;-48
2020/12/03 07:01:42;;;;;;;8.35;5.88;;;9.90;79.00;;;;;;5131965;27;20061;-43
2020/12/03 07:04:45;;;;;;;9.13;5.55;;;9.90;79.00;;;;;;5130595;27;20478;-45
2020/12/03 07:08:00;;;;;;;8.52;5.75;;;9.90;79.00;;;;;;5131275;27;20043;-43
2020/12/03 07:10:56;;;;;;;8.48;6.00;;;10.00;79.10;;;;;;5131718;27;20051;-46
2020/12/03 07:13:38;;;;;;;9.05;5.95;;;10.00;79.00;;;;;;5124214;27;20039;-44
2020/12/03 07:16:24;;;;;;;8.73;5.97;;;9.90;79.00;;;;;;5132648;27;20043;-52
2020/12/03 07:19:29;;;;;;;8.70;5.75;;;9.90;79.00;;;;;;5120342;27;20050;-46
2020/12/03 07:22:35;;;;;;;8.75;5.43;;;9.90;79.00;;;;;;5121045;27;20063;-50
2020/12/03 07:25:03;;;;;;;8.65;5.80;;;10.00;79.10;;;;;;5132134;27;20063;-44
2020/12/03 07:27:35;;;;;;;8.20;5.28;;;9.90;79.00;;;;;;5133336;27;20479;-48
2020/12/03 07:30:42;;;;;;;9.70;5.80;;;9.90;79.00;;;;;;5122538;27;20051;-46
2020/12/03 07:33:17;;;;;;;8.85;5.75;;;9.90;79.00;;;;;;5131482;27;20512;-48
2020/12/03 07:36:07;;;;;;;8.82;6.07;;;9.90;79.00;;;;;;5131977;27;20047;-43
2020/12/03 07:38:52;;;;;;;8.48;6.15;;;9.90;79.00;;;;;;5130781;27;20054;-44
2020/12/03 07:41:21;;;;;;;8.38;6.32;;;10.00;79.10;;;;;;5131609;27;20151;-49
2020/12/03 07:43:47;;;;;;;7.97;5.32;;;9.90;79.70;;;;;;5132493;27;20043;-47
2020/12/03 07:46:39;;;;;;;8.40;6.00;;;9.90;79.10;;;;;;5132981;28;20466;-45
2020/12/03 07:49:05;;;;;;;7.93;5.75;;;9.90;79.30;;;;;;5125851;28;20499;-43
2020/12/03 07:51:32;;;;;;;9.32;6.55;;;9.90;79.00;;;;;;5133173;27;20126;-48
2020/12/03 07:54:16;;;;;;;8.20;5.65;;;9.90;79.00;;;;;;5132690;27;20047;-45
2020/12/03 07:57:08;;;;;;;8.65;5.93;;;9.90;79.00;;;;;;5122684;28;20051;-43
2020/12/03 07:59:37;;;;;;;8.68;5.65;;;10.00;79.10;;;;;;5132626;28;20039;-43
2020/12/03 08:02:23;;;;;;;8.95;5.82;;;9.90;79.00;;;;;;5132744;28;20494;-46
2020/12/03 08:05:34;;;;;;;9.18;5.97;;;9.90;79.00;;;;;;5122744;28;20483;-50
2020/12/03 08:08:00;;;;;;;8.80;5.53;;;10.00;79.00;;;;;;5132020;28;20460;-44
2020/12/03 08:10:38;;;;;;;8.90;6.10;;;10.00;79.00;;;;;;5131054;28;20047;-43
2020/12/03 08:13:41;;;;;;;9.55;6.20;;;9.90;78.90;;;;;;5124644;28;20047;-41
2020/12/03 08:16:12;;;;;;;8.25;5.75;;;9.90;79.00;;;;;;5129856;28;20046;-42
2020/12/03 08:18:57;;;;;;;8.23;6.00;;;9.90;79.60;;;;;;5132844;27;20039;-41
2020/12/03 08:21:37;;;;;;;9.68;5.95;;;10.00;79.00;;;;;;5131671;28;20539;-42
2020/12/03 08:24:06;;;;;;;8.50;6.00;;;9.90;78.90;;;;;;5132108;27;20475;-43
2020/12/03 08:26:31;;;;;;;8.73;6.00;;;9.90;78.90;;;;;;5131883;28;20146;-41
2020/12/03 08:28:57;;;;;;;8.90;6.22;;;10.00;79.00;;;;;;5132740;28;20067;-43
2020/12/03 08:31:43;;;;;;;8.55;6.43;;;9.90;78.90;;;;;;5116341;27;20051;-42
2020/12/03 08:34:32;;;;;;;7.95;5.88;;;9.90;78.90;;;;;;5124155;27;20089;-42
2020/12/03 08:37:27;;;;;;;7.82;5.88;;;9.90;78.90;;;;;;5128910;27;20047;-43
2020/12/03 08:39:55;;;;;;;10.13;6.50;;;9.90;78.90;;;;;;5135965;27;20508;-43
2020/12/03 08:42:41;;;;;;;9.52;6.32;;;10.00;79.00;;;;;;5124475;27;20134;-44
2020/12/03 08:45:07;;;;;;;9.77;5.93;;;10.00;79.00;;;;;;5135996;27;20451;-43
2020/12/03 08:47:46;;;;;;;8.30;6.03;;;9.90;78.90;;;;;;5136233;27;20051;-42
2020/12/03 08:50:31;;;;;;;8.93;6.75;;;10.00;79.00;;;;;;5126001;27;20050;-43
2020/12/03 08:53:17;;;;;;;8.05;6.07;;;9.90;78.90;;;;;;5127406;27;20095;-43
2020/12/03 08:55:44;;;;;;;8.88;6.03;;;9.90;78.90;;;;;;5135997;27;20041;-42
2020/12/03 08:58:12;;;;;;;8.23;6.20;;;9.90;78.90;;;;;;5135915;27;20035;-42
2020/12/03 09:00:42;;;;;;;8.60;6.20;;;9.90;78.90;;;;;;5133691;27;20040;-43
2020/12/03 09:03:13;;;;;;;8.82;6.57;;;10.00;78.90;;;;;;5135568;27;20071;-40
2020/12/03 09:05:44;;;;;;;8.40;5.72;;;10.00;78.90;;;;;;5133346;27;20082;-66
2020/12/03 09:08:17;;;;;;;9.25;6.43;;;10.00;79.00;;;;;;5135836;27;20038;-65
2020/12/03 09:10:43;;;;;;;9.45;6.72;;;10.00;78.90;;;;;;5134907;27;20047;-66
2020/12/03 09:13:29;;;;;;;7.80;6.05;;;9.90;78.90;;;;;;5120767;27;20398;-41
2020/12/03 09:15:57;;;;;;;9.40;6.68;;;10.00;78.90;;;;;;5135935;27;20096;-67
2020/12/03 09:18:22;;;;;;;8.40;6.25;;;10.00;78.90;;;;;;5127796;27;20052;-57
2020/12/03 09:21:10;;;;;;;8.93;6.30;;;10.00;78.90;;;;;;5126519;27;20047;-66
2020/12/03 09:23:38;;;;;;;8.25;6.43;;;10.00;78.90;;;;;;5135781;27;20047;-66
2020/12/03 09:26:33;;;;;;;8.27;5.97;;;10.00;78.90;;;;;;5127045;27;20138;-66
2020/12/03 09:29:01;;;;;;;7.82;5.75;;;10.00;78.90;;;;;;5136164;27;20043;-66
2020/12/03 09:31:34;;;;;;;10.60;7.10;;;10.00;78.90;;;;;;5136010;27;20468;-66
2020/12/03 09:34:21;;;;;;;9.80;6.35;;;10.00;78.90;;;;;;5122468;27;20085;-65
2020/12/03 09:36:46;;;;;;;10.65;6.55;;;10.00;78.90;;;;;;5135659;27;20043;-66
2020/12/03 09:39:13;;;;;;;8.20;5.82;;;10.00;78.90;;;;;;5136004;27;20073;-66
2020/12/03 09:41:42;;;;;;;9.45;6.70;;;10.00;78.90;;;;;;5135494;27;20376;-66
2020/12/03 09:44:32;;;;;;;9.52;6.32;;;10.00;78.90;;;;;;5127522;27;20181;-66
2020/12/03 09:47:01;;;;;;;10.63;6.85;;;10.00;78.90;;;;;;5135625;27;20039;-62
2020/12/03 09:49:47;;;;;;;10.32;6.75;;;10.00;78.90;;;;;;5128552;27;20044;-44
2020/12/03 09:52:13;;;;;;;7.90;5.82;;;10.00;78.80;;;;;;5136124;27;20043;-48
2020/12/03 09:54:40;;;;;;;9.57;6.28;;;10.00;79.50;;;;;;5136321;27;20082;-55
2020/12/03 09:57:12;;;;;;;8.30;6.43;;;10.00;78.90;;;;;;5135476;27;20074;-45
2020/12/03 10:00:00;;;;;;;9.15;6.15;;;10.00;78.80;;;;;;5120450;27;20083;-53
2020/12/03 10:02:56;;;;;;;8.20;5.90;;;10.00;78.80;;;;;;5135905;27;20054;-50
2020/12/03 10:05:52;;;;;;;11.15;6.75;;;10.00;78.80;;;;;;5134934;27;20078;-46
2020/12/03 10:08:37;;;;;;;8.57;6.05;;;10.00;78.80;;;;;;5132330;27;20058;-57
2020/12/03 10:11:31;;;;;;;9.05;6.43;;;10.00;78.80;;;;;;5133340;27;20066;-56
2020/12/03 10:14:38;;;;;;;10.45;6.97;;;10.00;78.80;;;;;;5122481;27;20036;-45
2020/12/03 10:17:06;;;;;;;9.10;6.30;;;10.00;78.80;;;;;;5133230;27;20272;-48
2020/12/03 10:19:42;;;;;;;10.18;7.22;;;10.10;78.90;;;;;;5135012;27;20073;-45
2020/12/03 10:22:25;;;;;;;9.80;6.18;;;10.00;78.80;;;;;;5134989;27;20048;-51
2020/12/03 10:25:17;;;;;;;10.35;6.30;;;10.00;78.80;;;;;;5124250;27;20058;-46
2020/12/03 10:27:56;;;;;;;8.52;6.00;;;10.00;78.80;;;;;;5126203;27;20095;-43
2020/12/03 10:30:35;;;;;;;9.13;6.10;;;10.00;78.80;;;;;;5130893;27;20042;-58
2020/12/03 10:33:04;;;;;;;8.45;6.43;;;10.00;78.80;;;;;;5131998;27;20095;-45
2020/12/03 10:35:31;;;;;;;7.65;6.32;;;10.00;78.80;;;;;;5133949;27;20039;-50
2020/12/03 10:38:24;;;;;;;8.15;6.05;;;10.00;78.80;;;;;;5112971;27;20054;-48
2020/12/03 10:41:10;;;;;;;7.93;5.93;;;10.00;78.90;;;;;;5118083;27;20045;-41
2020/12/03 10:44:02;;;;;;;10.00;6.47;;;10.00;78.80;;;;;;5116282;27;20054;-46
2020/12/03 10:46:30;;;;;;;9.82;6.20;;;10.00;78.80;;;;;;5131852;27;20047;-49
2020/12/03 10:48:59;;;;;;;9.27;6.47;;;10.00;78.80;;;;;;5132534;27;20049;-53
2020/12/03 10:51:25;;;;;;;11.25;6.45;;;10.00;78.80;;;;;;5134092;27;20093;-47
2020/12/03 10:53:52;;;;;;;9.13;7.10;;;10.00;78.80;;;;;;5132839;27;20053;-60
2020/12/03 10:56:28;;;;;;;8.88;6.22;;;10.00;78.80;;;;;;5133439;27;20078;-51
2020/12/03 10:59:09;;;;;;;9.40;6.53;;;10.00;78.80;;;;;;5131378;27;20502;-57
2020/12/03 11:01:36;;;;;;;8.80;6.18;;;10.00;78.80;;;;;;5132374;27;20043;-57
2020/12/03 11:04:07;;;;;;;8.95;6.22;;;10.00;78.80;;;;;;5133920;27;20043;-47
2020/12/03 11:06:34;;;;;;;8.60;5.95;;;10.00;78.80;;;;;;5134116;27;20058;-48
2020/12/03 11:09:01;;;;;;;7.82;5.45;;;10.00;78.80;;;;;;5133048;27;20088;-50
2020/12/03 11:11:37;;;;;;;8.57;6.20;;;10.00;78.80;;;;;;5133916;27;20047;-52
2020/12/03 11:14:10;;;;;;;9.25;5.93;;;10.00;78.80;;;;;;5133709;27;20103;-51
2020/12/03 11:16:42;;;;;;;8.38;5.70;;;10.00;78.80;;;;;;5132543;27;20121;-41
2020/12/03 11:19:15;;;;;;;7.68;5.63;;;10.00;78.80;;;;;;5133666;27;20562;-37
2020/12/03 11:22:19;;;;;;;10.63;7.43;;;10.00;78.80;;;;;;5117939;27;20070;-41
2020/12/03 11:25:07;;;;;;;8.00;5.68;;;10.00;78.70;;;;;;5115595;27;20084;-43
2020/12/03 11:27:36;;;;;;;7.65;5.60;;;10.00;78.70;;;;;;5132114;27;20518;-44
2020/12/03 11:30:23;;;;;;;11.68;7.68;;;10.00;78.70;;;;;;5114961;27;20201;-48
2020/12/03 11:32:54;;;;;;;9.93;7.38;;;10.00;78.60;;;;;;5133865;27;20069;-41
2020/12/03 11:35:28;;;;;;;9.75;7.75;;;9.90;78.70;;;;;;5134060;27;20055;-55
2020/12/03 11:37:56;;;;;;;10.73;7.70;;;9.90;78.80;;;;;;5133203;27;20071;-43
2020/12/03 11:40:37;;;;;;;12.25;8.00;;;9.90;78.80;;;;;;5134017;27;20085;-49
2020/12/03 11:48:55;;;;;;;11.85;7.55;;;10.00;78.80;;;;;;5090197;28;20052;-60
2020/12/03 11:51:29;;;;;;;12.40;7.60;;;9.90;78.80;;;;;;5089977;28;20044;-57
2020/12/03 11:54:07;;;;;;;10.98;7.10;;;10.00;78.80;;;;;;5090740;28;20056;-59
2020/12/03 11:56:34;;;;;;;11.98;7.75;;;10.00;78.80;;;;;;5090339;28;20056;-59
2020/12/03 11:59:22;;;;;;;9.85;6.97;;;10.00;78.80;;;;;;5076039;28;20097;-56
2020/12/03 12:01:55;;;;;;;9.80;7.22;;;10.00;78.80;;;;;;5090653;28;20052;-61
2020/12/03 12:07:33;;;;;;;10.18;7.55;;;10.00;78.80;;;;;;5090065;28;20251;-60
2020/12/03 12:10:36;;;;;;;10.00;7.28;;;10.00;78.80;;;;;;5080654;28;20052;-59
2020/12/03 12:13:01;;;;;;;10.27;6.93;;;10.00;78.80;;;;;;5094541;28;20428;-59
2020/12/03 12:15:48;;;;;;;11.05;7.50;;;10.00;78.80;;;;;;5079624;28;20052;-59
2020/12/03 12:18:14;;;;;;;9.43;6.75;;;10.00;78.80;;;;;;5094575;28;20051;-59
2020/12/03 12:20:40;;;;;;;16.90;9.60;;;10.00;78.80;;;;;;5092754;28;20044;-57
2020/12/03 12:23:06;;;;;;;15.85;10.23;;;9.90;78.40;;;;;;5127740;27;20042;-57
2020/12/03 12:25:51;;;;;;;17.20;9.43;;;9.90;78.70;;;;;;5112335;27;20065;-38
2020/12/03 12:28:18;;;;;;;18.55;8.98;;;9.90;78.80;;;;;;5127943;27;20043;-43
2020/12/03 12:31:04;;;;;;;13.32;8.98;;;9.80;78.80;;;;;;5118839;27;20432;-46
2020/12/03 12:33:30;;;;;;;16.70;9.27;;;9.90;78.90;;;;;;5136738;27;20058;-42
2020/12/03 12:35:55;;;;;;;13.60;8.18;;;9.80;78.90;;;;;;5135555;27;20114;-38
2020/12/03 12:38:21;;;;;;;12.32;7.97;;;9.90;79.00;;;;;;5136564;27;20043;-38
2020/12/03 12:40:47;;;;;;;12.18;8.60;;;9.80;79.00;;;;;;5136982;27;20047;-38
2020/12/03 12:43:13;;;;;;;12.73;9.30;;;9.80;79.10;;;;;;5135746;27;20559;-41
2020/12/03 12:45:39;;;;;;;20.08;9.43;;;9.80;79.10;;;;;;5136489;27;20043;-43
2020/12/03 12:48:05;;;;;;;13.07;8.55;;;9.90;79.20;;;;;;5136698;27;20099;-44
2020/12/03 12:50:31;;;;;;;17.25;8.55;;;9.90;79.20;;;;;;5136037;27;20406;-42
2020/12/03 12:53:17;;;;;;;11.95;8.00;;;9.90;79.30;;;;;;5120592;27;20487;-54
2020/12/03 12:55:42;;;;;;;13.90;7.63;;;9.90;79.30;;;;;;5136204;27;20073;-59
2020/12/03 12:58:08;;;;;;;13.32;8.75;;;9.90;79.30;;;;;;5135759;27;20047;-57
2020/12/03 13:00:34;;;;;;;9.52;6.85;;;9.90;79.20;;;;;;5136132;27;20054;-49
2020/12/03 13:03:20;;;;;;;10.82;7.50;;;9.90;79.30;;;;;;5121348;27;20043;-50
2020/12/03 13:05:45;;;;;;;12.82;8.00;;;9.90;79.30;;;;;;5136278;27;20479;-54
2020/12/03 13:08:11;;;;;;;12.13;7.38;;;9.90;79.30;;;;;;5133176;27;20047;-53
2020/12/03 13:10:37;;;;;;;16.23;7.32;;;9.90;79.30;;;;;;5134325;27;20051;-48
2020/12/03 13:13:03;;;;;;;9.27;7.00;;;9.90;79.90;;;;;;5135271;27;20051;-40
2020/12/03 13:15:29;;;;;;;11.23;7.68;;;9.90;79.30;;;;;;5136128;27;20100;-41
2020/12/03 13:17:54;;;;;;;9.88;7.30;;;9.90;79.30;;;;;;5136215;27;20050;-40
2020/12/03 13:20:20;;;;;;;12.07;7.43;;;9.90;79.30;;;;;;5135872;27;20046;-60
2020/12/03 13:22:46;;;;;;;11.27;6.97;;;9.90;79.30;;;;;;5134866;27;20062;-61
2020/12/03 13:25:11;;;;;;;9.32;6.75;;;9.90;79.30;;;;;;5134295;27;20055;-58
2020/12/03 13:27:57;;;;;;;8.88;6.80;;;9.90;79.30;;;;;;5118621;27;20051;-50
2020/12/03 13:30:43;;;;;;;9.73;6.82;;;9.90;79.20;;;;;;5119492;27;20495;-46
2020/12/03 13:33:08;;;;;;;9.95;6.95;;;9.90;79.20;;;;;;5135900;27;20087;-40
2020/12/03 13:35:34;;;;;;;10.85;7.47;;;9.90;79.20;;;;;;5135419;27;20039;-51
2020/12/03 13:38:00;;;;;;;9.85;6.95;;;9.90;79.20;;;;;;5124457;27;20039;-46
2020/12/03 13:40:45;;;;;;;8.73;6.25;;;9.90;79.20;;;;;;5104275;27;20506;-43
2020/12/03 13:43:11;;;;;;;8.38;6.53;;;9.90;79.20;;;;;;5135465;27;20047;-54
2020/12/03 13:45:37;;;;;;;8.85;6.78;;;9.90;79.20;;;;;;5134755;27;20180;-52
2020/12/03 13:48:22;;;;;;;12.38;7.18;;;9.90;79.20;;;;;;5120045;27;20517;-43
2020/12/03 13:50:48;;;;;;;8.90;6.75;;;9.90;79.20;;;;;;5135025;27;20039;-45